Weather at Simara Airport

Public forecast

Using degrees Celsius for public forecast. Weather courtesy of forecast.io.

Closest aviation weather report (METAR) to Simara Airport

Closest report is Tribhuvan International Airport, 38.1 nm (70.5 km) NNE. Retrieved 2020/09/24 19:20 UTC (59 minutes ago):

VNKT 241920Z 09004KT 6000 -RA FEW010 SCT030 0VC090 19/19 Q1011 NOSIG

Closest aviation forecast (TAF) to Simara Airport

Closest forecast is Tribhuvan International Airport, 38.1 nm (70.5 km) NNE. Retrieved 2020/09/24 18:51 UTC (1 hour ago):

TAF VNKT 241700Z 2418/2518 00000KT 5000 -RA FEW008 SCT025 OVC090 BECMG 2500/2502 VRB03KT 4000 -RA/BR FEW010 SCT025 BKN100 BECMG 2504/2505 12004KT 6000 FEW015 SCT025 BKN100 BECMG 2507/2509 25008KT 8000 FEW020 SCT025 BKN100 PROB40 2508/2514 VRB07KT 4000 -TSRA FEW025CB OVC090 BECMG 2514/2515 21003KT 6000 FEW015 SCT025 BKN100